sensor_id;sensor_type;location;lat;lon;timestamp;P1;durP1;ratioP1;P2;durP2;ratioP2
44480;SDS011;30184;42.018;23.670;2022-07-30T00:01:34;9.32;;;5.63;;
44480;SDS011;30184;42.018;23.670;2022-07-30T00:04:03;6.47;;;5.25;;
44480;SDS011;30184;42.018;23.670;2022-07-30T00:06:33;7.20;;;5.18;;
44480;SDS011;30184;42.018;23.670;2022-07-30T00:09:04;6.88;;;4.88;;
44480;SDS011;30184;42.018;23.670;2022-07-30T00:11:33;9.70;;;5.70;;
44480;SDS011;30184;42.018;23.670;2022-07-30T00:14:03;8.35;;;5.35;;
44480;SDS011;30184;42.018;23.670;2022-07-30T00:16:33;7.30;;;5.50;;
44480;SDS011;30184;42.018;23.670;2022-07-30T00:19:03;7.43;;;5.00;;
44480;SDS011;30184;42.018;23.670;2022-07-30T00:21:32;9.63;;;5.60;;
44480;SDS011;30184;42.018;23.670;2022-07-30T00:24:03;9.02;;;5.38;;
44480;SDS011;30184;42.018;23.670;2022-07-30T00:26:33;8.77;;;6.30;;
44480;SDS011;30184;42.018;23.670;2022-07-30T00:29:02;6.00;;;5.00;;
44480;SDS011;30184;42.018;23.670;2022-07-30T00:31:33;8.13;;;5.30;;
44480;SDS011;30184;42.018;23.670;2022-07-30T00:34:03;8.57;;;5.50;;
44480;SDS011;30184;42.018;23.670;2022-07-30T00:36:32;7.97;;;5.55;;
44480;SDS011;30184;42.018;23.670;2022-07-30T00:39:01;6.65;;;5.15;;
44480;SDS011;30184;42.018;23.670;2022-07-30T00:41:33;7.75;;;5.68;;
44480;SDS011;30184;42.018;23.670;2022-07-30T00:44:04;7.93;;;5.70;;
44480;SDS011;30184;42.018;23.670;2022-07-30T00:46:35;9.13;;;5.45;;
44480;SDS011;30184;42.018;23.670;2022-07-30T00:49:06;8.27;;;5.70;;
44480;SDS011;30184;42.018;23.670;2022-07-30T00:51:35;10.43;;;5.50;;
44480;SDS011;30184;42.018;23.670;2022-07-30T00:54:04;11.85;;;6.03;;
44480;SDS011;30184;42.018;23.670;2022-07-30T00:56:33;10.75;;;5.30;;
44480;SDS011;30184;42.018;23.670;2022-07-30T00:59:03;8.68;;;5.53;;
44480;SDS011;30184;42.018;23.670;2022-07-30T01:01:36;12.20;;;5.57;;
44480;SDS011;30184;42.018;23.670;2022-07-30T01:04:05;10.10;;;5.20;;
44480;SDS011;30184;42.018;23.670;2022-07-30T01:06:38;7.00;;;5.47;;
44480;SDS011;30184;42.018;23.670;2022-07-30T01:09:08;7.10;;;5.43;;
44480;SDS011;30184;42.018;23.670;2022-07-30T01:11:38;9.13;;;6.05;;
44480;SDS011;30184;42.018;23.670;2022-07-30T01:14:09;8.52;;;5.63;;
44480;SDS011;30184;42.018;23.670;2022-07-30T01:16:42;9.00;;;5.72;;
44480;SDS011;30184;42.018;23.670;2022-07-30T01:19:12;6.95;;;5.15;;
44480;SDS011;30184;42.018;23.670;2022-07-30T01:22:08;7.43;;;5.57;;
44480;SDS011;30184;42.018;23.670;2022-07-30T01:24:46;14.82;;;5.43;;
44480;SDS011;30184;42.018;23.670;2022-07-30T01:27:25;11.95;;;5.47;;
44480;SDS011;30184;42.018;23.670;2022-07-30T01:29:58;10.23;;;5.53;;
44480;SDS011;30184;42.018;23.670;2022-07-30T01:32:31;6.75;;;5.43;;
44480;SDS011;30184;42.018;23.670;2022-07-30T01:35:02;10.15;;;6.00;;
44480;SDS011;30184;42.018;23.670;2022-07-30T01:37:34;7.85;;;5.28;;
44480;SDS011;30184;42.018;23.670;2022-07-30T01:40:06;8.82;;;5.45;;
44480;SDS011;30184;42.018;23.670;2022-07-30T01:42:38;8.32;;;5.32;;
44480;SDS011;30184;42.018;23.670;2022-07-30T01:45:11;8.25;;;5.90;;
44480;SDS011;30184;42.018;23.670;2022-07-30T01:47:42;8.20;;;5.88;;
44480;SDS011;30184;42.018;23.670;2022-07-30T01:50:13;10.73;;;6.10;;
44480;SDS011;30184;42.018;23.670;2022-07-30T02:57:53;7.97;;;5.85;;
44480;SDS011;30184;42.018;23.670;2022-07-30T03:00:24;13.38;;;6.22;;
44480;SDS011;30184;42.018;23.670;2022-07-30T03:02:54;5.78;;;4.97;;
44480;SDS011;30184;42.018;23.670;2022-07-30T03:05:25;9.05;;;5.68;;
44480;SDS011;30184;42.018;23.670;2022-07-30T03:07:56;7.15;;;6.00;;
44480;SDS011;30184;42.018;23.670;2022-07-30T03:10:27;10.45;;;6.07;;
44480;SDS011;30184;42.018;23.670;2022-07-30T03:12:59;8.57;;;6.40;;
44480;SDS011;30184;42.018;23.670;2022-07-30T03:15:29;9.43;;;7.05;;
44480;SDS011;30184;42.018;23.670;2022-07-30T03:18:02;9.80;;;6.00;;
44480;SDS011;30184;42.018;23.670;2022-07-30T03:20:34;7.68;;;5.63;;
44480;SDS011;30184;42.018;23.670;2022-07-30T03:23:05;9.30;;;5.85;;
44480;SDS011;30184;42.018;23.670;2022-07-30T03:25:36;10.07;;;5.78;;
44480;SDS011;30184;42.018;23.670;2022-07-30T04:43:25;11.93;;;5.82;;
44480;SDS011;30184;42.018;23.670;2022-07-30T04:49:05;10.20;;;6.97;;
44480;SDS011;30184;42.018;23.670;2022-07-30T04:51:35;13.50;;;7.60;;
44480;SDS011;30184;42.018;23.670;2022-07-30T04:58:58;16.60;;;8.68;;
44480;SDS011;30184;42.018;23.670;2022-07-30T05:04:29;12.23;;;6.47;;
44480;SDS011;30184;42.018;23.670;2022-07-30T05:07:00;9.10;;;5.63;;
44480;SDS011;30184;42.018;23.670;2022-07-30T05:09:30;13.00;;;5.47;;
44480;SDS011;30184;42.018;23.670;2022-07-30T05:12:01;8.77;;;5.68;;
44480;SDS011;30184;42.018;23.670;2022-07-30T05:14:32;7.85;;;5.22;;
44480;SDS011;30184;42.018;23.670;2022-07-30T05:17:02;7.50;;;4.93;;
44480;SDS011;30184;42.018;23.670;2022-07-30T05:19:32;7.13;;;4.75;;
44480;SDS011;30184;42.018;23.670;2022-07-30T05:22:01;7.85;;;4.80;;
44480;SDS011;30184;42.018;23.670;2022-07-30T05:24:33;7.53;;;4.32;;
44480;SDS011;30184;42.018;23.670;2022-07-30T05:27:06;5.72;;;4.65;;
44480;SDS011;30184;42.018;23.670;2022-07-30T05:29:36;8.02;;;4.97;;
44480;SDS011;30184;42.018;23.670;2022-07-30T05:32:10;7.60;;;5.43;;
44480;SDS011;30184;42.018;23.670;2022-07-30T05:34:41;8.20;;;6.07;;
44480;SDS011;30184;42.018;23.670;2022-07-30T05:37:10;10.00;;;5.22;;
44480;SDS011;30184;42.018;23.670;2022-07-30T05:39:39;6.53;;;4.68;;
44480;SDS011;30184;42.018;23.670;2022-07-30T05:42:27;13.07;;;7.22;;
44480;SDS011;30184;42.018;23.670;2022-07-30T05:44:59;8.68;;;4.97;;
44480;SDS011;30184;42.018;23.670;2022-07-30T05:47:28;9.13;;;4.20;;
44480;SDS011;30184;42.018;23.670;2022-07-30T05:49:57;9.75;;;5.78;;
44480;SDS011;30184;42.018;23.670;2022-07-30T05:52:29;7.80;;;4.07;;
44480;SDS011;30184;42.018;23.670;2022-07-30T05:55:07;8.63;;;4.15;;
44480;SDS011;30184;42.018;23.670;2022-07-30T05:57:53;10.95;;;4.93;;
44480;SDS011;30184;42.018;23.670;2022-07-30T06:00:23;9.98;;;4.90;;
44480;SDS011;30184;42.018;23.670;2022-07-30T06:02:54;10.07;;;4.68;;
44480;SDS011;30184;42.018;23.670;2022-07-30T06:05:26;7.35;;;5.00;;
44480;SDS011;30184;42.018;23.670;2022-07-30T06:07:58;10.95;;;5.13;;
44480;SDS011;30184;42.018;23.670;2022-07-30T06:10:29;7.22;;;4.93;;
44480;SDS011;30184;42.018;23.670;2022-07-30T06:12:59;8.25;;;6.03;;
44480;SDS011;30184;42.018;23.670;2022-07-30T06:15:30;14.63;;;5.32;;
44480;SDS011;30184;42.018;23.670;2022-07-30T06:18:03;7.30;;;4.88;;
44480;SDS011;30184;42.018;23.670;2022-07-30T06:20:42;10.27;;;6.00;;
44480;SDS011;30184;42.018;23.670;2022-07-30T06:23:21;11.48;;;5.18;;
44480;SDS011;30184;42.018;23.670;2022-07-30T06:26:13;7.43;;;4.82;;
44480;SDS011;30184;42.018;23.670;2022-07-30T06:28:43;7.38;;;4.57;;
44480;SDS011;30184;42.018;23.670;2022-07-30T06:31:33;8.50;;;4.40;;
44480;SDS011;30184;42.018;23.670;2022-07-30T06:34:04;6.22;;;4.22;;
44480;SDS011;30184;42.018;23.670;2022-07-30T06:36:39;6.18;;;4.32;;
44480;SDS011;30184;42.018;23.670;2022-07-30T06:39:14;6.07;;;3.85;;
44480;SDS011;30184;42.018;23.670;2022-07-30T06:42:04;6.57;;;4.10;;
44480;SDS011;30184;42.018;23.670;2022-07-30T06:44:52;9.25;;;5.10;;
44480;SDS011;30184;42.018;23.670;2022-07-30T06:47:25;7.10;;;4.72;;
44480;SDS011;30184;42.018;23.670;2022-07-30T06:49:56;8.88;;;5.75;;
44480;SDS011;30184;42.018;23.670;2022-07-30T06:52:30;10.73;;;7.43;;
44480;SDS011;30184;42.018;23.670;2022-07-30T06:55:03;11.80;;;5.80;;
44480;SDS011;30184;42.018;23.670;2022-07-30T06:57:51;6.60;;;4.68;;
44480;SDS011;30184;42.018;23.670;2022-07-30T07:01:30;15.27;;;5.35;;
44480;SDS011;30184;42.018;23.670;2022-07-30T07:10:45;8.98;;;5.10;;
44480;SDS011;30184;42.018;23.670;2022-07-30T07:13:25;8.70;;;4.32;;
44480;SDS011;30184;42.018;23.670;2022-07-30T07:15:57;6.80;;;4.88;;
44480;SDS011;30184;42.018;23.670;2022-07-30T07:18:28;9.68;;;4.50;;
44480;SDS011;30184;42.018;23.670;2022-07-30T07:21:02;12.07;;;4.47;;
44480;SDS011;30184;42.018;23.670;2022-07-30T07:23:32;11.43;;;4.10;;
44480;SDS011;30184;42.018;23.670;2022-07-30T07:26:02;6.35;;;4.45;;
44480;SDS011;30184;42.018;23.670;2022-07-30T07:28:31;6.22;;;4.57;;
44480;SDS011;30184;42.018;23.670;2022-07-30T07:31:01;10.50;;;5.22;;
44480;SDS011;30184;42.018;23.670;2022-07-30T07:33:30;7.32;;;4.38;;
44480;SDS011;30184;42.018;23.670;2022-07-30T07:36:00;10.32;;;5.00;;
44480;SDS011;30184;42.018;23.670;2022-07-30T07:38:32;8.25;;;5.32;;
44480;SDS011;30184;42.018;23.670;2022-07-30T07:41:02;7.20;;;4.20;;
44480;SDS011;30184;42.018;23.670;2022-07-30T07:43:33;6.85;;;4.10;;
44480;SDS011;30184;42.018;23.670;2022-07-30T07:46:09;7.40;;;4.13;;
44480;SDS011;30184;42.018;23.670;2022-07-30T07:48:42;9.13;;;4.28;;
44480;SDS011;30184;42.018;23.670;2022-07-30T07:51:30;17.25;;;4.03;;
44480;SDS011;30184;42.018;23.670;2022-07-30T07:54:01;14.27;;;4.00;;
44480;SDS011;30184;42.018;23.670;2022-07-30T07:56:46;5.13;;;3.65;;
44480;SDS011;30184;42.018;23.670;2022-07-30T07:59:17;6.15;;;3.58;;
44480;SDS011;30184;42.018;23.670;2022-07-30T08:01:47;6.35;;;4.45;;
44480;SDS011;30184;42.018;23.670;2022-07-30T08:04:16;6.90;;;3.83;;
44480;SDS011;30184;42.018;23.670;2022-07-30T08:07:04;7.93;;;4.20;;
44480;SDS011;30184;42.018;23.670;2022-07-30T08:09:53;8.02;;;4.00;;
44480;SDS011;30184;42.018;23.670;2022-07-30T08:13:00;11.43;;;4.00;;
44480;SDS011;30184;42.018;23.670;2022-07-30T08:15:48;5.28;;;3.63;;
44480;SDS011;30184;42.018;23.670;2022-07-30T08:18:37;7.03;;;3.65;;
44480;SDS011;30184;42.018;23.670;2022-07-30T08:21:15;7.88;;;3.75;;
44480;SDS011;30184;42.018;23.670;2022-07-30T08:23:44;7.05;;;3.50;;
44480;SDS011;30184;42.018;23.670;2022-07-30T08:26:15;6.60;;;3.45;;
44480;SDS011;30184;42.018;23.670;2022-07-30T08:28:44;4.72;;;3.22;;
44480;SDS011;30184;42.018;23.670;2022-07-30T08:31:13;5.90;;;3.70;;
44480;SDS011;30184;42.018;23.670;2022-07-30T08:33:44;6.65;;;3.80;;
44480;SDS011;30184;42.018;23.670;2022-07-30T08:36:14;7.10;;;3.72;;
44480;SDS011;30184;42.018;23.670;2022-07-30T08:38:44;6.70;;;3.70;;
44480;SDS011;30184;42.018;23.670;2022-07-30T08:41:17;4.95;;;3.65;;
44480;SDS011;30184;42.018;23.670;2022-07-30T08:43:48;4.90;;;3.95;;
44480;SDS011;30184;42.018;23.670;2022-07-30T08:46:20;6.68;;;4.22;;
44480;SDS011;30184;42.018;23.670;2022-07-30T08:48:57;5.78;;;3.83;;
44480;SDS011;30184;42.018;23.670;2022-07-30T08:51:27;6.10;;;4.05;;
44480;SDS011;30184;42.018;23.670;2022-07-30T08:54:29;9.57;;;3.85;;
44480;SDS011;30184;42.018;23.670;2022-07-30T08:56:59;5.18;;;3.65;;
44480;SDS011;30184;42.018;23.670;2022-07-30T08:59:29;11.32;;;4.97;;
44480;SDS011;30184;42.018;23.670;2022-07-30T09:01:59;10.75;;;4.05;;
44480;SDS011;30184;42.018;23.670;2022-07-30T09:04:29;9.82;;;4.20;;
44480;SDS011;30184;42.018;23.670;2022-07-30T09:06:59;6.00;;;3.88;;
44480;SDS011;30184;42.018;23.670;2022-07-30T09:09:29;8.35;;;4.57;;
44480;SDS011;30184;42.018;23.670;2022-07-30T09:11:58;6.65;;;4.30;;
44480;SDS011;30184;42.018;23.670;2022-07-30T09:14:28;6.78;;;4.30;;
44480;SDS011;30184;42.018;23.670;2022-07-30T09:16:58;11.20;;;4.22;;
44480;SDS011;30184;42.018;23.670;2022-07-30T09:19:28;6.85;;;4.25;;
44480;SDS011;30184;42.018;23.670;2022-07-30T09:21:57;6.53;;;4.35;;
44480;SDS011;30184;42.018;23.670;2022-07-30T09:24:43;5.90;;;4.55;;
44480;SDS011;30184;42.018;23.670;2022-07-30T09:27:46;7.07;;;4.18;;
44480;SDS011;30184;42.018;23.670;2022-07-30T09:30:45;7.22;;;4.72;;
44480;SDS011;30184;42.018;23.670;2022-07-30T09:33:34;7.68;;;4.82;;
44480;SDS011;30184;42.018;23.670;2022-07-30T09:36:23;6.72;;;4.38;;
44480;SDS011;30184;42.018;23.670;2022-07-30T09:39:29;8.15;;;4.20;;
44480;SDS011;30184;42.018;23.670;2022-07-30T09:42:21;5.13;;;4.10;;
44480;SDS011;30184;42.018;23.670;2022-07-30T09:45:05;8.23;;;3.90;;
44480;SDS011;30184;42.018;23.670;2022-07-30T09:47:36;7.53;;;4.10;;
44480;SDS011;30184;42.018;23.670;2022-07-30T09:50:07;9.60;;;4.22;;
44480;SDS011;30184;42.018;23.670;2022-07-30T09:52:38;7.60;;;4.93;;
44480;SDS011;30184;42.018;23.670;2022-07-30T09:55:08;7.18;;;4.60;;
44480;SDS011;30184;42.018;23.670;2022-07-30T09:57:52;6.65;;;4.00;;
44480;SDS011;30184;42.018;23.670;2022-07-30T10:00:25;8.00;;;4.63;;
44480;SDS011;30184;42.018;23.670;2022-07-30T10:03:16;7.22;;;4.90;;
44480;SDS011;30184;42.018;23.670;2022-07-30T10:06:06;11.02;;;4.53;;
44480;SDS011;30184;42.018;23.670;2022-07-30T10:08:39;7.93;;;4.97;;
44480;SDS011;30184;42.018;23.670;2022-07-30T10:11:11;8.07;;;4.97;;
44480;SDS011;30184;42.018;23.670;2022-07-30T10:13:42;8.15;;;4.82;;
44480;SDS011;30184;42.018;23.670;2022-07-30T10:16:13;7.50;;;5.18;;
44480;SDS011;30184;42.018;23.670;2022-07-30T10:18:42;10.82;;;5.15;;
44480;SDS011;30184;42.018;23.670;2022-07-30T10:21:34;7.68;;;5.45;;
44480;SDS011;30184;42.018;23.670;2022-07-30T10:24:22;6.97;;;5.00;;
44480;SDS011;30184;42.018;23.670;2022-07-30T10:27:10;5.90;;;4.60;;
44480;SDS011;30184;42.018;23.670;2022-07-30T10:30:06;6.88;;;5.22;;
44480;SDS011;30184;42.018;23.670;2022-07-30T10:32:37;7.53;;;5.30;;
44480;SDS011;30184;42.018;23.670;2022-07-30T10:35:07;8.18;;;5.93;;
44480;SDS011;30184;42.018;23.670;2022-07-30T10:37:38;15.68;;;5.78;;
44480;SDS011;30184;42.018;23.670;2022-07-30T10:40:11;10.93;;;5.15;;
44480;SDS011;30184;42.018;23.670;2022-07-30T10:42:55;6.30;;;4.97;;
44480;SDS011;30184;42.018;23.670;2022-07-30T10:45:48;6.93;;;4.88;;
44480;SDS011;30184;42.018;23.670;2022-07-30T10:48:28;7.38;;;5.13;;
44480;SDS011;30184;42.018;23.670;2022-07-30T10:51:00;9.77;;;5.28;;
44480;SDS011;30184;42.018;23.670;2022-07-30T10:53:36;10.05;;;4.93;;
44480;SDS011;30184;42.018;23.670;2022-07-30T10:56:09;10.95;;;5.18;;
44480;SDS011;30184;42.018;23.670;2022-07-30T10:59:00;8.05;;;5.22;;
44480;SDS011;30184;42.018;23.670;2022-07-30T11:07:28;9.40;;;4.82;;
44480;SDS011;30184;42.018;23.670;2022-07-30T11:09:59;7.78;;;4.57;;
44480;SDS011;30184;42.018;23.670;2022-07-30T11:15:22;7.90;;;5.05;;
44480;SDS011;30184;42.018;23.670;2022-07-30T11:17:58;5.70;;;4.40;;
44480;SDS011;30184;42.018;23.670;2022-07-30T11:20:30;12.10;;;4.82;;
44480;SDS011;30184;42.018;23.670;2022-07-30T11:23:08;6.70;;;3.92;;
44480;SDS011;30184;42.018;23.670;2022-07-30T11:25:39;9.40;;;4.85;;
44480;SDS011;30184;42.018;23.670;2022-07-30T11:37:04;7.93;;;4.93;;
44480;SDS011;30184;42.018;23.670;2022-07-30T11:42:36;9.57;;;4.32;;
44480;SDS011;30184;42.018;23.670;2022-07-30T11:45:20;9.20;;;5.22;;
44480;SDS011;30184;42.018;23.670;2022-07-30T11:48:08;9.52;;;5.82;;
44480;SDS011;30184;42.018;23.670;2022-07-30T11:50:39;8.75;;;5.97;;
44480;SDS011;30184;42.018;23.670;2022-07-30T11:53:13;8.10;;;5.72;;
44480;SDS011;30184;42.018;23.670;2022-07-30T11:55:44;8.48;;;5.90;;
44480;SDS011;30184;42.018;23.670;2022-07-30T11:58:25;10.73;;;5.57;;
44480;SDS011;30184;42.018;23.670;2022-07-30T12:00:56;8.43;;;5.60;;
44480;SDS011;30184;42.018;23.670;2022-07-30T12:03:27;8.18;;;5.60;;
44480;SDS011;30184;42.018;23.670;2022-07-30T12:06:02;9.05;;;5.35;;
44480;SDS011;30184;42.018;23.670;2022-07-30T12:08:39;8.10;;;5.65;;
44480;SDS011;30184;42.018;23.670;2022-07-30T12:11:09;8.57;;;6.00;;
44480;SDS011;30184;42.018;23.670;2022-07-30T12:13:42;7.90;;;6.03;;
44480;SDS011;30184;42.018;23.670;2022-07-30T12:16:22;8.63;;;6.05;;
44480;SDS011;30184;42.018;23.670;2022-07-30T12:18:51;7.93;;;5.45;;
44480;SDS011;30184;42.018;23.670;2022-07-30T12:21:21;8.27;;;5.65;;
44480;SDS011;30184;42.018;23.670;2022-07-30T12:23:54;10.48;;;6.28;;
44480;SDS011;30184;42.018;23.670;2022-07-30T12:26:24;9.20;;;5.95;;
44480;SDS011;30184;42.018;23.670;2022-07-30T12:28:56;8.52;;;6.00;;
44480;SDS011;30184;42.018;23.670;2022-07-30T12:31:26;11.15;;;5.93;;
44480;SDS011;30184;42.018;23.670;2022-07-30T12:33:59;8.10;;;5.93;;
44480;SDS011;30184;42.018;23.670;2022-07-30T12:36:30;6.80;;;5.72;;
44480;SDS011;30184;42.018;23.670;2022-07-30T12:39:02;9.00;;;6.20;;
44480;SDS011;30184;42.018;23.670;2022-07-30T12:41:40;11.35;;;6.15;;
44480;SDS011;30184;42.018;23.670;2022-07-30T12:44:09;7.82;;;6.30;;
44480;SDS011;30184;42.018;23.670;2022-07-30T12:46:59;11.50;;;6.32;;
44480;SDS011;30184;42.018;23.670;2022-07-30T12:49:29;11.85;;;6.63;;
44480;SDS011;30184;42.018;23.670;2022-07-30T12:51:58;7.97;;;5.63;;
44480;SDS011;30184;42.018;23.670;2022-07-30T12:54:29;9.18;;;5.68;;
44480;SDS011;30184;42.018;23.670;2022-07-30T12:56:59;7.90;;;5.80;;
44480;SDS011;30184;42.018;23.670;2022-07-30T12:59:30;6.93;;;5.60;;
44480;SDS011;30184;42.018;23.670;2022-07-30T13:02:01;9.95;;;5.82;;
44480;SDS011;30184;42.018;23.670;2022-07-30T13:04:30;9.50;;;5.70;;
44480;SDS011;30184;42.018;23.670;2022-07-30T13:07:04;8.27;;;6.25;;
44480;SDS011;30184;42.018;23.670;2022-07-30T13:09:35;8.25;;;5.80;;
44480;SDS011;30184;42.018;23.670;2022-07-30T13:12:06;8.23;;;5.75;;
44480;SDS011;30184;42.018;23.670;2022-07-30T13:14:39;8.38;;;6.20;;
44480;SDS011;30184;42.018;23.670;2022-07-30T13:17:08;7.13;;;5.30;;
44480;SDS011;30184;42.018;23.670;2022-07-30T13:19:37;8.10;;;5.57;;
44480;SDS011;30184;42.018;23.670;2022-07-30T13:22:06;9.20;;;6.13;;
44480;SDS011;30184;42.018;23.670;2022-07-30T13:24:37;7.15;;;5.43;;
44480;SDS011;30184;42.018;23.670;2022-07-30T13:27:06;13.05;;;9.20;;
44480;SDS011;30184;42.018;23.670;2022-07-30T13:29:35;9.50;;;6.60;;
44480;SDS011;30184;42.018;23.670;2022-07-30T13:32:05;8.13;;;6.22;;
44480;SDS011;30184;42.018;23.670;2022-07-30T13:34:34;8.32;;;6.18;;
44480;SDS011;30184;42.018;23.670;2022-07-30T13:37:03;10.30;;;5.93;;
44480;SDS011;30184;42.018;23.670;2022-07-30T13:39:32;9.02;;;6.78;;
44480;SDS011;30184;42.018;23.670;2022-07-30T13:42:04;11.95;;;6.70;;
44480;SDS011;30184;42.018;23.670;2022-07-30T13:44:33;8.63;;;6.40;;
44480;SDS011;30184;42.018;23.670;2022-07-30T13:47:02;11.27;;;6.88;;
44480;SDS011;30184;42.018;23.670;2022-07-30T13:49:34;7.75;;;6.28;;
44480;SDS011;30184;42.018;23.670;2022-07-30T13:52:05;7.70;;;6.25;;
44480;SDS011;30184;42.018;23.670;2022-07-30T13:54:35;12.07;;;6.22;;
44480;SDS011;30184;42.018;23.670;2022-07-30T13:57:05;10.20;;;6.07;;
44480;SDS011;30184;42.018;23.670;2022-07-30T13:59:34;8.43;;;6.40;;
44480;SDS011;30184;42.018;23.670;2022-07-30T14:02:03;8.50;;;6.20;;
44480;SDS011;30184;42.018;23.670;2022-07-30T14:04:32;7.68;;;5.50;;
44480;SDS011;30184;42.018;23.670;2022-07-30T14:07:01;6.90;;;5.72;;
44480;SDS011;30184;42.018;23.670;2022-07-30T14:09:31;13.48;;;6.35;;
44480;SDS011;30184;42.018;23.670;2022-07-30T14:12:01;8.73;;;6.05;;
44480;SDS011;30184;42.018;23.670;2022-07-30T14:14:31;8.55;;;5.75;;
44480;SDS011;30184;42.018;23.670;2022-07-30T14:17:00;7.80;;;5.90;;
44480;SDS011;30184;42.018;23.670;2022-07-30T14:19:30;7.00;;;5.55;;
44480;SDS011;30184;42.018;23.670;2022-07-30T14:21:59;12.20;;;5.78;;
44480;SDS011;30184;42.018;23.670;2022-07-30T14:24:28;8.52;;;5.65;;
44480;SDS011;30184;42.018;23.670;2022-07-30T14:26:57;8.90;;;5.53;;
44480;SDS011;30184;42.018;23.670;2022-07-30T14:29:26;7.35;;;5.25;;
44480;SDS011;30184;42.018;23.670;2022-07-30T14:31:57;7.72;;;5.70;;
44480;SDS011;30184;42.018;23.670;2022-07-30T14:34:26;8.35;;;5.50;;
44480;SDS011;30184;42.018;23.670;2022-07-30T14:36:55;6.72;;;4.97;;
44480;SDS011;30184;42.018;23.670;2022-07-30T14:39:24;6.68;;;5.10;;
44480;SDS011;30184;42.018;23.670;2022-07-30T14:41:54;5.93;;;4.55;;
44480;SDS011;30184;42.018;23.670;2022-07-30T14:44:23;6.88;;;5.22;;
44480;SDS011;30184;42.018;23.670;2022-07-30T14:46:52;11.38;;;6.10;;
44480;SDS011;30184;42.018;23.670;2022-07-30T14:49:24;7.68;;;5.35;;
44480;SDS011;30184;42.018;23.670;2022-07-30T14:51:53;8.90;;;4.78;;
44480;SDS011;30184;42.018;23.670;2022-07-30T14:54:22;6.60;;;4.57;;
44480;SDS011;30184;42.018;23.670;2022-07-30T14:56:52;6.85;;;4.65;;
44480;SDS011;30184;42.018;23.670;2022-07-30T14:59:24;8.27;;;5.65;;
44480;SDS011;30184;42.018;23.670;2022-07-30T15:01:54;8.35;;;4.88;;
44480;SDS011;30184;42.018;23.670;2022-07-30T15:04:25;8.20;;;5.20;;
44480;SDS011;30184;42.018;23.670;2022-07-30T15:06:54;7.00;;;4.45;;
44480;SDS011;30184;42.018;23.670;2022-07-30T15:09:23;6.50;;;4.85;;
44480;SDS011;30184;42.018;23.670;2022-07-30T15:11:53;6.35;;;4.50;;
44480;SDS011;30184;42.018;23.670;2022-07-30T15:14:31;8.98;;;4.45;;
44480;SDS011;30184;42.018;23.670;2022-07-30T15:17:00;7.85;;;5.70;;
44480;SDS011;30184;42.018;23.670;2022-07-30T15:19:31;8.35;;;5.47;;
44480;SDS011;30184;42.018;23.670;2022-07-30T15:22:00;7.20;;;5.10;;
44480;SDS011;30184;42.018;23.670;2022-07-30T15:24:31;6.22;;;4.28;;
44480;SDS011;30184;42.018;23.670;2022-07-30T15:27:00;7.82;;;4.93;;
44480;SDS011;30184;42.018;23.670;2022-07-30T15:29:29;6.60;;;4.55;;
44480;SDS011;30184;42.018;23.670;2022-07-30T15:31:58;8.80;;;4.40;;
44480;SDS011;30184;42.018;23.670;2022-07-30T15:34:28;9.85;;;5.55;;
44480;SDS011;30184;42.018;23.670;2022-07-30T15:37:01;7.18;;;5.03;;
44480;SDS011;30184;42.018;23.670;2022-07-30T15:39:31;6.53;;;4.80;;
44480;SDS011;30184;42.018;23.670;2022-07-30T15:42:00;6.18;;;4.07;;
44480;SDS011;30184;42.018;23.670;2022-07-30T15:44:30;7.35;;;4.60;;
44480;SDS011;30184;42.018;23.670;2022-07-30T15:46:59;7.30;;;4.50;;
44480;SDS011;30184;42.018;23.670;2022-07-30T15:49:28;8.60;;;4.45;;
44480;SDS011;30184;42.018;23.670;2022-07-30T15:51:57;6.43;;;4.55;;
44480;SDS011;30184;42.018;23.670;2022-07-30T15:54:28;6.40;;;4.63;;
44480;SDS011;30184;42.018;23.670;2022-07-30T15:56:57;5.50;;;4.00;;
44480;SDS011;30184;42.018;23.670;2022-07-30T15:59:26;8.32;;;4.65;;
44480;SDS011;30184;42.018;23.670;2022-07-30T16:01:56;7.97;;;4.53;;
44480;SDS011;30184;42.018;23.670;2022-07-30T16:04:24;6.82;;;4.63;;
44480;SDS011;30184;42.018;23.670;2022-07-30T16:06:55;7.65;;;4.75;;
44480;SDS011;30184;42.018;23.670;2022-07-30T16:09:24;8.30;;;4.97;;
44480;SDS011;30184;42.018;23.670;2022-07-30T16:11:55;7.70;;;4.85;;
44480;SDS011;30184;42.018;23.670;2022-07-30T16:14:24;6.03;;;4.53;;
44480;SDS011;30184;42.018;23.670;2022-07-30T16:16:54;7.28;;;4.97;;
44480;SDS011;30184;42.018;23.670;2022-07-30T16:19:23;6.18;;;4.45;;
44480;SDS011;30184;42.018;23.670;2022-07-30T16:21:52;7.78;;;4.85;;
44480;SDS011;30184;42.018;23.670;2022-07-30T16:24:21;6.78;;;4.53;;
44480;SDS011;30184;42.018;23.670;2022-07-30T16:26:50;9.45;;;6.25;;
44480;SDS011;30184;42.018;23.670;2022-07-30T16:29:21;10.30;;;6.38;;
44480;SDS011;30184;42.018;23.670;2022-07-30T16:31:50;8.63;;;5.65;;
44480;SDS011;30184;42.018;23.670;2022-07-30T16:34:19;11.00;;;5.68;;
44480;SDS011;30184;42.018;23.670;2022-07-30T16:36:49;7.85;;;4.78;;
44480;SDS011;30184;42.018;23.670;2022-07-30T16:39:18;9.55;;;5.10;;
44480;SDS011;30184;42.018;23.670;2022-07-30T16:41:47;9.88;;;5.38;;
44480;SDS011;30184;42.018;23.670;2022-07-30T16:44:16;8.35;;;5.47;;
44480;SDS011;30184;42.018;23.670;2022-07-30T16:46:47;8.38;;;5.22;;
44480;SDS011;30184;42.018;23.670;2022-07-30T16:49:16;8.85;;;5.70;;
44480;SDS011;30184;42.018;23.670;2022-07-30T16:51:45;11.07;;;5.18;;
44480;SDS011;30184;42.018;23.670;2022-07-30T16:54:14;5.72;;;4.60;;
44480;SDS011;30184;42.018;23.670;2022-07-30T16:56:43;8.43;;;5.35;;
44480;SDS011;30184;42.018;23.670;2022-07-30T16:59:12;9.13;;;5.60;;
44480;SDS011;30184;42.018;23.670;2022-07-30T17:01:43;6.53;;;5.13;;
44480;SDS011;30184;42.018;23.670;2022-07-30T17:04:14;7.57;;;5.35;;
44480;SDS011;30184;42.018;23.670;2022-07-30T17:06:43;12.27;;;6.75;;
44480;SDS011;30184;42.018;23.670;2022-07-30T17:09:13;10.77;;;6.70;;
44480;SDS011;30184;42.018;23.670;2022-07-30T17:11:42;12.02;;;7.18;;
44480;SDS011;30184;42.018;23.670;2022-07-30T17:14:11;11.55;;;7.32;;
44480;SDS011;30184;42.018;23.670;2022-07-30T17:16:40;7.78;;;5.88;;
44480;SDS011;30184;42.018;23.670;2022-07-30T17:19:09;9.23;;;6.63;;
44480;SDS011;30184;42.018;23.670;2022-07-30T17:21:39;7.60;;;5.80;;
44480;SDS011;30184;42.018;23.670;2022-07-30T17:24:08;10.18;;;6.20;;
44480;SDS011;30184;42.018;23.670;2022-07-30T17:26:40;11.35;;;5.93;;
44480;SDS011;30184;42.018;23.670;2022-07-30T17:29:10;8.52;;;6.47;;
44480;SDS011;30184;42.018;23.670;2022-07-30T17:31:41;57.85;;;25.08;;
44480;SDS011;30184;42.018;23.670;2022-07-30T17:34:12;39.65;;;17.45;;
44480;SDS011;30184;42.018;23.670;2022-07-30T17:36:47;10.80;;;6.97;;
44480;SDS011;30184;42.018;23.670;2022-07-30T17:39:17;11.38;;;7.18;;
44480;SDS011;30184;42.018;23.670;2022-07-30T17:41:46;8.77;;;6.38;;
44480;SDS011;30184;42.018;23.670;2022-07-30T17:44:33;8.30;;;6.78;;
44480;SDS011;30184;42.018;23.670;2022-07-30T17:47:24;8.00;;;6.82;;
44480;SDS011;30184;42.018;23.670;2022-07-30T17:49:53;9.30;;;6.78;;
44480;SDS011;30184;42.018;23.670;2022-07-30T17:52:23;10.30;;;7.07;;
44480;SDS011;30184;42.018;23.670;2022-07-30T17:54:53;10.88;;;7.28;;
44480;SDS011;30184;42.018;23.670;2022-07-30T17:57:22;13.60;;;8.23;;
44480;SDS011;30184;42.018;23.670;2022-07-30T17:59:52;10.60;;;7.53;;
44480;SDS011;30184;42.018;23.670;2022-07-30T18:02:21;11.15;;;7.57;;
44480;SDS011;30184;42.018;23.670;2022-07-30T18:04:50;9.43;;;6.68;;